Terminal Aerodrome Forecast
Issued by NWS

Home | Current Version | Previous Version | Text Only | Print | Product List | Glossary On
Versions: 1 2 3 4 5 6 7 8 9 10 11 12 13
000
FTUS44 KLIX 282300
TAFMSY
TAF
KMSY 282323Z 2900/2924 14007KT P6SM SCT040 SCT100 BKN250
     FM290900 09006KT P6SM BKN090 BKN250
     FM291500 11008KT P6SM VCSH SCT040 BKN060
      TEMPO 2918/2922 2SM TSRA BKN030CB=

USA.gov is the U.S. government's official web portal to all federal, state and local government web resources and services.